North Pole, AK (99705)

7:17 PM AKDT on May 04, 2015 (GMT -0800)
AKDOT | | Change Station
CLOSE
Current Station
Personal Weather Station
Location: North Pole, AK
Elevation: 494 ft
Nearby Weather Stations

Elev 494 ft 64.77 °N, 147.35 °W | Updated 54 minutes ago

Partly Cloudy
Partly Cloudy
59 °F
Feels Like 59 °F
N
4
Wind Variable Wind from North
Gusts 12.0 mph

Today
High -- | Low -- °F
--% Chance of Precip.
Yesterday
High -- | Low -- °F
Precip. -- in
5:06 AM 10:28 PM
Full, 99% visible
Pressure 29.99 in
Visibility 25.0 miles
Clouds Few 15000 ft
Few 20000 ft
Dew Point 19 °F
Humidity 21%
Rainfall in
Snow Depth Not available.
UV 2 out of 12
Pollen Not available.
Air Quality Not available.
Flu Activity Sporadic
METAR PAFB 050155Z 05010G20KT 25SM FEW150 FEW200 16/M08 A2997 RMK SLP153

More Conditions Fewer Conditions

Pressure 29.99 in
Visibility 25.0 miles
Clouds Few 15000 ft
Few 20000 ft
Dew Point 19 °F
Humidity 21%
Rainfall in
Snow Depth Not available.
UV 2 out of 12
Pollen Not available.
Air Quality Not available.
Flu Activity Sporadic
METAR PAFB 050155Z 05010G20KT 25SM FEW150 FEW200 16/M08 A2997 RMK SLP153

More Conditions Fewer Conditions

10-Day Weather Forecast

Almanac

Astronomy

May. 04, 2015 Rise Set
Actual Time
Civil Twilight
Nautical Twilight
Astronomical Twilight
Moon
Length of Visible Light
Length of Day
Tomorrow will be .
, % of the Moon is Illuminated

Today's Extremes

State Highs State Lows

Community

WunderPhotos

Upload Photos

1,818,807 photos uploaded!

WunderBlogs® & News

Nearby

Air Quality

  Air Quality AQ Index Pollutant
Not available.

Snow Depth

Station Depth Elevation

Earthquake Activity

City Distance Mag. Time & Date
Minimum magnitude displayed is 2.5.

Coastal Water Temperatures

Place Temperature

Stations

Nearby Weather Stations

Station Location Temp. Windchill Dew Point Humidity Wind Precip. Elev Updated Type